Time;durP1;ratioP1;P1;durP2;ratioP2;P2;SDS_P1;SDS_P2;PMS_P1;PMS_P2;Temp;Humidity;BMP_temperature;BMP_pressure;BME280_temperature;BME280_humidity;BME280_pressure;Samples;Min_cycle;Max_cycle;Signal;HPM_P1;HPM_P2
2023/05/04 00:00:39;;;;;;;10.68;5.85;;;10.70;99.90;;;;;;5094110;28;20028;-57
2023/05/04 00:03:04;;;;;;;11.85;5.40;;;10.60;99.90;;;;;;5089758;28;20096;-58
2023/05/04 00:05:30;;;;;;;12.68;5.80;;;10.60;99.90;;;;;;5090893;28;20118;-57
2023/05/04 00:07:56;;;;;;;9.63;5.40;;;10.50;99.90;;;;;;5092392;28;20056;-57
2023/05/04 00:10:21;;;;;;;10.63;5.70;;;10.60;99.90;;;;;;5089210;28;20035;-57
2023/05/04 00:12:47;;;;;;;12.65;4.82;;;10.50;99.90;;;;;;5095956;28;20044;-57
2023/05/04 00:15:12;;;;;;;10.48;5.50;;;10.50;99.90;;;;;;5093073;28;20091;-57
2023/05/04 00:17:38;;;;;;;13.00;4.97;;;10.40;99.90;;;;;;5094965;28;20046;-57
2023/05/04 00:20:04;;;;;;;8.57;5.40;;;10.40;99.90;;;;;;5091810;28;20216;-57
2023/05/04 00:22:30;;;;;;;10.48;5.53;;;10.30;99.90;;;;;;5097098;28;20031;-57
2023/05/04 00:24:56;;;;;;;12.30;5.20;;;10.50;99.90;;;;;;5096801;28;20688;-57
2023/05/04 00:27:21;;;;;;;13.07;5.47;;;10.40;99.90;;;;;;5094975;27;20519;-57
2023/05/04 00:29:47;;;;;;;13.35;5.85;;;10.20;99.90;;;;;;5101668;27;20737;-57
2023/05/04 00:32:12;;;;;;;9.27;5.32;;;10.20;99.90;;;;;;5099964;27;20150;-58
2023/05/04 00:34:39;;;;;;;11.23;5.40;;;10.30;99.90;;;;;;5101609;27;20043;-58
2023/05/04 00:37:05;;;;;;;10.50;5.78;;;10.30;99.90;;;;;;5096890;27;20055;-57
2023/05/04 00:39:33;;;;;;;10.00;6.10;;;9.90;99.90;;;;;;5096894;27;20483;-57
2023/05/04 00:41:59;;;;;;;7.55;5.47;;;9.90;99.90;;;;;;5099855;28;20040;-57
2023/05/04 00:44:26;;;;;;;12.82;5.88;;;9.70;99.90;;;;;;5099923;28;20043;-57
2023/05/04 00:46:52;;;;;;;11.00;6.03;;;9.50;99.90;;;;;;5097865;28;20131;-57
2023/05/04 00:49:18;;;;;;;10.35;6.68;;;9.40;99.90;;;;;;5096636;27;20088;-57
2023/05/04 00:51:44;;;;;;;13.32;6.78;;;9.40;99.90;;;;;;5102483;27;20043;-57
2023/05/04 00:54:10;;;;;;;14.50;6.75;;;9.30;99.90;;;;;;5081713;28;20031;-57
2023/05/04 00:56:41;;;;;;;12.65;7.35;;;9.20;99.90;;;;;;5101060;28;20032;-57
2023/05/04 00:59:06;;;;;;;13.63;6.90;;;9.50;99.90;;;;;;5079311;28;20035;-58
2023/05/04 01:01:32;;;;;;;11.45;7.13;;;9.30;99.90;;;;;;5094719;28;20039;-57
2023/05/04 01:03:58;;;;;;;10.38;6.97;;;9.40;99.90;;;;;;5096894;27;20114;-58
2023/05/04 01:06:33;;;;;;;13.35;7.38;;;9.20;99.90;;;;;;5101392;27;20024;-58
2023/05/04 01:09:18;;;;;;;12.15;7.35;;;9.10;99.90;;;;;;5099057;27;20135;-57
2023/05/04 01:11:56;;;;;;;14.90;8.00;;;9.00;99.90;;;;;;5096340;27;20469;-57
2023/05/04 01:14:23;;;;;;;11.75;6.88;;;9.00;99.90;;;;;;5097807;27;20028;-57
2023/05/04 01:16:53;;;;;;;13.93;7.70;;;9.00;99.90;;;;;;5099283;28;20247;-57
2023/05/04 01:19:19;;;;;;;11.95;7.18;;;8.90;99.90;;;;;;5093190;28;20039;-58
2023/05/04 01:21:45;;;;;;;13.07;7.47;;;8.90;99.90;;;;;;5099317;27;20084;-57
2023/05/04 01:24:10;;;;;;;11.38;6.90;;;8.90;99.90;;;;;;5092854;27;20516;-57
2023/05/04 01:26:42;;;;;;;11.98;7.13;;;8.90;99.90;;;;;;5104892;27;20039;-58
2023/05/04 01:29:24;;;;;;;15.32;7.22;;;8.80;99.90;;;;;;5092839;28;20236;-57
2023/05/04 01:31:51;;;;;;;8.73;6.32;;;8.80;99.90;;;;;;5097110;28;20035;-57
2023/05/04 01:34:17;;;;;;;11.13;7.00;;;8.60;99.90;;;;;;5087853;27;20406;-57
2023/05/04 01:36:44;;;;;;;10.60;7.13;;;8.50;99.90;;;;;;5089457;27;20046;-57
2023/05/04 01:39:10;;;;;;;13.18;7.30;;;8.60;99.90;;;;;;5090675;28;20503;-57
2023/05/04 01:41:35;;;;;;;12.20;7.50;;;8.50;99.90;;;;;;5090734;27;20042;-57
2023/05/04 01:44:02;;;;;;;11.52;6.70;;;8.60;99.90;;;;;;5091135;28;20103;-58
2023/05/04 01:46:28;;;;;;;11.73;7.22;;;8.50;99.90;;;;;;5086998;27;20032;-57
2023/05/04 01:48:53;;;;;;;10.43;6.75;;;8.50;99.90;;;;;;5076233;28;20036;-58
2023/05/04 01:51:19;;;;;;;11.15;6.70;;;8.50;99.90;;;;;;5070099;28;20035;-57
2023/05/04 01:53:44;;;;;;;12.40;7.03;;;8.80;99.90;;;;;;5089260;28;20032;-57
2023/05/04 01:56:10;;;;;;;16.50;7.85;;;8.60;99.90;;;;;;5093180;27;20380;-57
2023/05/04 01:58:35;;;;;;;12.07;7.18;;;8.70;99.90;;;;;;5067854;28;20062;-58
2023/05/04 02:01:01;;;;;;;13.20;7.22;;;8.70;99.90;;;;;;5086175;28;20036;-58
2023/05/04 02:03:27;;;;;;;12.55;7.45;;;8.60;99.90;;;;;;5085941;27;20042;-57
2023/05/04 02:05:52;;;;;;;10.35;7.07;;;8.70;99.90;;;;;;5099573;27;20040;-57
2023/05/04 02:08:18;;;;;;;10.23;7.15;;;8.70;99.90;;;;;;5071514;28;20080;-58
2023/05/04 02:10:44;;;;;;;13.75;6.72;;;8.70;99.90;;;;;;5089479;28;20077;-57
2023/05/04 02:13:09;;;;;;;14.60;7.82;;;8.60;99.90;;;;;;5090065;27;20149;-57
2023/05/04 02:15:35;;;;;;;15.13;7.55;;;8.40;99.90;;;;;;5092364;27;20123;-57
2023/05/04 02:18:01;;;;;;;15.40;7.50;;;8.40;99.90;;;;;;5088562;28;20075;-57
2023/05/04 02:20:26;;;;;;;14.02;7.90;;;8.50;99.90;;;;;;5087104;28;20042;-57
2023/05/04 02:22:52;;;;;;;11.52;7.47;;;8.60;99.90;;;;;;5091042;27;20077;-57
2023/05/04 02:25:17;;;;;;;11.00;7.20;;;8.70;99.90;;;;;;5088794;28;20054;-58
2023/05/04 02:27:43;;;;;;;11.55;7.18;;;8.70;99.90;;;;;;5090156;28;20088;-58
2023/05/04 02:30:09;;;;;;;14.23;7.68;;;8.60;99.90;;;;;;5091553;28;20092;-58
2023/05/04 02:32:35;;;;;;;13.52;7.43;;;8.60;99.90;;;;;;5088706;28;20058;-57
2023/05/04 02:35:01;;;;;;;15.00;7.70;;;8.50;99.90;;;;;;5087833;28;20677;-57
2023/05/04 02:37:26;;;;;;;14.55;7.20;;;8.60;99.90;;;;;;5088866;28;20104;-58
2023/05/04 02:39:52;;;;;;;14.65;7.80;;;8.50;99.90;;;;;;5087262;28;20056;-57
2023/05/04 02:42:17;;;;;;;10.05;7.15;;;8.50;99.90;;;;;;5088249;28;20713;-57
2023/05/04 02:44:43;;;;;;;14.00;7.55;;;8.40;99.90;;;;;;5093013;27;20092;-58
2023/05/04 02:47:09;;;;;;;14.35;7.75;;;8.40;99.90;;;;;;5098043;27;20035;-57
2023/05/04 02:49:34;;;;;;;18.70;10.55;;;8.30;99.90;;;;;;5088761;28;20078;-57
2023/05/04 02:52:00;;;;;;;16.17;9.57;;;8.30;99.90;;;;;;5087745;28;20108;-57
2023/05/04 02:54:26;;;;;;;17.20;9.27;;;8.20;99.90;;;;;;5094569;28;20031;-57
2023/05/04 02:56:51;;;;;;;18.00;10.13;;;8.40;99.90;;;;;;5092510;28;20059;-57
2023/05/04 02:59:17;;;;;;;14.98;8.57;;;8.50;99.90;;;;;;5090604;28;20036;-57
2023/05/04 03:01:42;;;;;;;12.88;8.10;;;8.60;99.90;;;;;;5093048;27;20165;-57
2023/05/04 03:04:08;;;;;;;14.05;7.97;;;8.40;99.90;;;;;;5090182;28;20416;-57
2023/05/04 03:06:35;;;;;;;14.25;8.48;;;8.50;99.90;;;;;;5093899;28;20031;-57
2023/05/04 03:09:00;;;;;;;13.30;7.47;;;8.40;99.90;;;;;;5090961;28;20032;-57
2023/05/04 03:11:26;;;;;;;13.60;8.30;;;8.30;99.90;;;;;;5089733;28;20557;-57
2023/05/04 03:13:51;;;;;;;12.77;8.15;;;8.20;99.90;;;;;;5093164;27;20661;-57
2023/05/04 03:16:17;;;;;;;14.20;8.40;;;8.30;99.90;;;;;;5097191;28;20032;-58
2023/05/04 03:18:42;;;;;;;12.70;7.93;;;8.20;99.90;;;;;;5094050;28;20028;-57
2023/05/04 03:21:08;;;;;;;11.82;7.80;;;8.20;99.90;;;;;;5087338;28;20036;-57
2023/05/04 03:23:33;;;;;;;17.27;8.35;;;8.20;99.90;;;;;;5089757;27;20353;-57
2023/05/04 03:25:59;;;;;;;14.88;8.55;;;8.20;99.90;;;;;;5089564;28;20385;-57
2023/05/04 03:28:25;;;;;;;15.45;8.93;;;8.20;99.90;;;;;;5091646;28;20039;-57
2023/05/04 03:30:50;;;;;;;12.85;8.20;;;8.20;99.90;;;;;;5093067;28;20044;-57
2023/05/04 03:33:16;;;;;;;14.55;8.30;;;8.20;99.90;;;;;;5084637;28;20047;-57
2023/05/04 03:35:41;;;;;;;15.18;8.07;;;8.10;99.90;;;;;;5092939;28;20399;-57
2023/05/04 03:38:08;;;;;;;15.73;8.52;;;8.10;99.90;;;;;;5093557;28;20519;-57
2023/05/04 03:40:34;;;;;;;14.00;8.43;;;8.20;99.90;;;;;;5090219;28;20032;-57
2023/05/04 03:43:00;;;;;;;15.80;9.10;;;8.40;99.90;;;;;;5092704;28;20143;-58
2023/05/04 03:45:27;;;;;;;16.50;8.15;;;8.20;99.90;;;;;;5092272;28;20044;-57
2023/05/04 03:47:56;;;;;;;13.63;8.77;;;8.20;99.90;;;;;;5092167;27;20059;-57
2023/05/04 03:50:22;;;;;;;18.05;8.98;;;8.20;99.90;;;;;;5090307;28;20111;-57
2023/05/04 03:52:48;;;;;;;15.65;8.80;;;8.10;99.90;;;;;;5095759;28;20684;-57
2023/05/04 03:55:14;;;;;;;12.77;8.60;;;8.20;99.90;;;;;;5092899;28;20403;-57
2023/05/04 03:57:40;;;;;;;18.73;8.68;;;8.10;99.90;;;;;;5100112;27;20476;-57
2023/05/04 04:00:06;;;;;;;18.85;9.65;;;8.10;99.90;;;;;;5095673;28;20449;-57
2023/05/04 04:02:32;;;;;;;14.75;8.80;;;8.30;99.90;;;;;;5097023;27;20064;-57
2023/05/04 04:04:57;;;;;;;15.73;8.95;;;8.30;99.90;;;;;;5119281;27;20995;-57
2023/05/04 04:07:23;;;;;;;18.30;8.77;;;8.20;99.90;;;;;;5096418;27;20395;-57
2023/05/04 04:09:49;;;;;;;14.60;9.23;;;8.10;99.90;;;;;;5096678;27;20039;-57
2023/05/04 04:12:19;;;;;;;15.68;9.23;;;8.00;99.90;;;;;;5094970;28;20063;-58
2023/05/04 04:14:47;;;;;;;18.25;9.10;;;7.90;99.90;;;;;;5093383;28;20119;-57
2023/05/04 04:17:12;;;;;;;12.98;8.70;;;8.00;99.90;;;;;;5098715;27;20040;-57
2023/05/04 04:19:38;;;;;;;13.75;8.35;;;8.00;99.90;;;;;;5096178;27;20043;-57
2023/05/04 04:22:03;;;;;;;14.98;8.52;;;8.00;99.90;;;;;;5101399;27;20032;-57
2023/05/04 04:24:30;;;;;;;14.98;8.73;;;7.90;99.90;;;;;;5095241;28;20035;-57
2023/05/04 04:26:56;;;;;;;18.35;8.93;;;7.90;99.90;;;;;;5101006;27;20042;-57
2023/05/04 04:29:22;;;;;;;14.98;8.55;;;8.00;99.90;;;;;;5094441;27;20047;-57
2023/05/04 04:31:47;;;;;;;15.13;8.82;;;8.10;99.90;;;;;;5113594;27;20391;-57
2023/05/04 04:34:13;;;;;;;15.32;9.05;;;7.90;99.90;;;;;;5107637;27;20047;-57
2023/05/04 04:36:39;;;;;;;14.95;9.57;;;8.10;99.90;;;;;;5114058;27;20042;-58
2023/05/04 04:39:05;;;;;;;18.17;9.35;;;7.90;99.90;;;;;;5108139;27;20056;-57
2023/05/04 04:41:31;;;;;;;18.45;9.65;;;7.90;99.90;;;;;;5106531;27;20123;-57
2023/05/04 04:43:56;;;;;;;21.05;9.52;;;7.90;99.90;;;;;;5106214;27;20099;-57
2023/05/04 04:46:22;;;;;;;14.68;8.57;;;7.80;99.90;;;;;;5101937;27;21255;-57
2023/05/04 04:48:48;;;;;;;17.52;9.27;;;7.90;99.90;;;;;;5105907;27;20096;-57
2023/05/04 04:51:13;;;;;;;13.60;8.90;;;7.90;99.90;;;;;;5106966;27;20035;-57
2023/05/04 04:53:39;;;;;;;16.65;8.80;;;7.90;99.90;;;;;;5085211;28;20519;-57
2023/05/04 04:56:06;;;;;;;13.60;8.70;;;7.90;99.90;;;;;;5091694;27;20067;-57
2023/05/04 04:58:32;;;;;;;16.13;9.48;;;7.90;99.90;;;;;;5102224;28;20521;-57
2023/05/04 05:00:58;;;;;;;20.90;9.68;;;8.10;99.90;;;;;;5101489;27;20124;-57
2023/05/04 05:03:24;;;;;;;18.30;10.10;;;8.30;99.90;;;;;;5093972;27;20031;-57
2023/05/04 05:05:49;;;;;;;18.13;10.10;;;8.40;99.90;;;;;;5080999;28;20043;-57
2023/05/04 05:08:15;;;;;;;17.45;10.43;;;8.70;99.90;;;;;;5090377;28;20179;-57
2023/05/04 05:10:41;;;;;;;16.17;9.70;;;8.70;99.90;;;;;;5091672;27;20112;-57
2023/05/04 05:13:07;;;;;;;16.88;9.90;;;8.80;99.90;;;;;;5092538;27;20028;-57
2023/05/04 05:15:33;;;;;;;18.85;10.77;;;8.80;99.90;;;;;;5091085;27;20027;-57
2023/05/04 05:17:59;;;;;;;17.33;9.32;;;8.80;99.90;;;;;;5097809;27;20334;-57
2023/05/04 05:20:24;;;;;;;12.68;8.95;;;8.80;99.90;;;;;;5093849;27;20057;-60
2023/05/04 05:22:50;;;;;;;13.45;9.13;;;9.10;99.90;;;;;;5098062;27;20039;-59
2023/05/04 05:25:17;;;;;;;15.60;9.05;;;9.40;99.90;;;;;;5089842;27;20036;-60
2023/05/04 05:27:43;;;;;;;18.23;9.15;;;9.50;99.90;;;;;;5096662;27;20043;-60
2023/05/04 05:30:10;;;;;;;16.33;9.45;;;9.60;99.90;;;;;;5087180;28;20305;-60
2023/05/04 05:32:36;;;;;;;17.40;9.25;;;9.60;99.90;;;;;;5099933;28;20203;-60
2023/05/04 05:35:03;;;;;;;23.48;9.48;;;9.80;99.90;;;;;;5074910;28;20092;-58
2023/05/04 05:37:29;;;;;;;17.70;9.27;;;10.00;99.90;;;;;;5098304;27;20649;-60
2023/05/04 05:39:54;;;;;;;13.73;8.77;;;10.00;99.90;;;;;;5108741;27;20132;-60
2023/05/04 05:42:20;;;;;;;13.68;9.18;;;9.90;99.90;;;;;;5109983;27;20123;-60
2023/05/04 05:44:46;;;;;;;15.30;8.80;;;10.00;99.90;;;;;;5095013;27;20055;-60
2023/05/04 05:47:11;;;;;;;18.40;9.57;;;10.00;99.90;;;;;;5095140;27;20031;-59
2023/05/04 05:49:37;;;;;;;17.50;9.02;;;10.10;99.90;;;;;;5092035;27;20092;-59
2023/05/04 05:52:02;;;;;;;18.38;9.60;;;10.40;99.90;;;;;;5088999;27;20032;-59
2023/05/04 05:54:30;;;;;;;18.15;9.52;;;10.60;99.90;;;;;;5096839;28;20202;-59
2023/05/04 05:56:56;;;;;;;19.10;9.82;;;10.80;99.90;;;;;;5093287;28;20043;-60
2023/05/04 05:59:22;;;;;;;16.58;10.07;;;10.70;99.90;;;;;;5085683;27;20031;-59
2023/05/04 06:01:47;;;;;;;18.67;9.82;;;10.90;99.90;;;;;;5094082;28;20051;-59
2023/05/04 06:04:13;;;;;;;18.30;9.45;;;10.70;99.90;;;;;;5089588;28;20035;-59
2023/05/04 06:06:38;;;;;;;20.33;9.27;;;10.60;99.90;;;;;;5085085;28;20062;-59
2023/05/04 06:09:04;;;;;;;16.80;10.65;;;10.80;99.90;;;;;;5096904;27;20074;-59
2023/05/04 06:11:30;;;;;;;18.23;9.35;;;11.10;99.90;;;;;;5093687;27;20063;-59
2023/05/04 06:13:56;;;;;;;19.52;9.77;;;11.20;99.90;;;;;;5096351;28;20760;-59
2023/05/04 06:16:22;;;;;;;16.55;9.23;;;11.30;99.90;;;;;;5090187;28;20044;-59
2023/05/04 06:18:47;;;;;;;16.77;8.65;;;11.30;99.90;;;;;;5092016;28;20371;-59
2023/05/04 06:21:13;;;;;;;17.17;9.48;;;11.50;99.90;;;;;;5097362;27;20593;-59
2023/05/04 06:23:39;;;;;;;15.25;8.57;;;11.70;99.90;;;;;;5092308;27;20027;-60
2023/05/04 06:26:06;;;;;;;14.38;9.20;;;11.90;99.90;;;;;;5094969;27;20494;-59
2023/05/04 06:28:32;;;;;;;16.45;8.70;;;11.80;99.90;;;;;;5095167;27;20118;-60
2023/05/04 06:30:58;;;;;;;15.68;8.23;;;11.70;99.90;;;;;;5100000;27;20674;-60
2023/05/04 06:33:23;;;;;;;13.65;7.65;;;12.00;99.90;;;;;;5096871;27;20027;-61
2023/05/04 06:35:50;;;;;;;11.10;7.40;;;12.10;99.90;;;;;;5097407;27;21147;-61
2023/05/04 06:38:16;;;;;;;14.80;7.97;;;12.20;99.90;;;;;;5098464;27;20047;-60
2023/05/04 06:40:41;;;;;;;15.57;8.38;;;12.20;99.90;;;;;;5100628;27;20072;-61
2023/05/04 06:43:07;;;;;;;10.98;7.05;;;12.20;99.90;;;;;;5097827;27;20036;-61
2023/05/04 06:45:34;;;;;;;14.15;6.93;;;12.20;99.90;;;;;;5094964;28;20570;-61
2023/05/04 06:48:00;;;;;;;16.25;7.75;;;12.40;99.90;;;;;;5098260;27;20043;-61
2023/05/04 06:50:26;;;;;;;11.23;5.18;;;12.60;99.90;;;;;;5098052;27;20051;-61
2023/05/04 06:53:00;;;;;;;10.07;5.10;;;12.60;99.90;;;;;;5094166;27;20036;-61
2023/05/04 06:55:26;;;;;;;10.85;5.47;;;12.80;99.90;;;;;;5089639;27;20169;-61
2023/05/04 06:57:51;;;;;;;13.10;5.47;;;13.00;99.90;;;;;;5098253;27;20753;-61
2023/05/04 07:00:17;;;;;;;10.80;5.38;;;13.10;99.90;;;;;;5103243;27;20438;-61
2023/05/04 07:02:42;;;;;;;9.52;4.82;;;13.10;99.90;;;;;;5102028;27;20508;-61
2023/05/04 07:05:08;;;;;;;14.15;4.97;;;13.20;99.90;;;;;;5095418;27;20488;-61
2023/05/04 07:07:34;;;;;;;12.05;4.55;;;13.40;99.90;;;;;;5098382;28;20024;-61
2023/05/04 07:10:00;;;;;;;10.93;4.72;;;13.60;99.90;;;;;;5097641;28;20028;-61
2023/05/04 07:12:26;;;;;;;13.23;5.47;;;13.20;99.90;;;;;;5101539;27;20156;-61
2023/05/04 07:14:52;;;;;;;10.95;4.80;;;13.70;99.90;;;;;;5098229;28;20100;-61
2023/05/04 07:17:20;;;;;;;12.07;4.80;;;13.80;99.90;;;;;;5102306;27;20039;-62
2023/05/04 07:19:48;;;;;;;12.30;4.80;;;13.90;99.90;;;;;;5101549;28;20132;-61
2023/05/04 07:22:14;;;;;;;8.50;4.65;;;14.00;99.90;;;;;;5100696;27;20040;-61
2023/05/04 07:24:40;;;;;;;11.05;5.13;;;14.20;99.90;;;;;;5102904;28;20047;-61
2023/05/04 07:27:05;;;;;;;11.23;5.10;;;14.30;99.90;;;;;;5097954;28;20134;-61
2023/05/04 07:29:31;;;;;;;12.93;5.35;;;14.30;99.90;;;;;;5100231;27;20097;-61
2023/05/04 07:31:56;;;;;;;9.40;5.28;;;14.20;99.90;;;;;;5100028;27;20490;-61
2023/05/04 07:34:22;;;;;;;11.70;4.63;;;14.30;99.90;;;;;;5095201;27;20036;-61
2023/05/04 07:36:47;;;;;;;12.75;5.30;;;14.30;99.90;;;;;;5101318;27;20386;-60
2023/05/04 07:39:15;;;;;;;13.18;5.22;;;14.40;99.90;;;;;;5103557;28;20031;-60
2023/05/04 07:41:41;;;;;;;10.65;4.93;;;14.70;99.90;;;;;;5102553;27;20095;-61
2023/05/04 07:44:07;;;;;;;23.10;14.90;;;14.50;99.90;;;;;;5105165;27;20031;-61
2023/05/04 07:46:33;;;;;;;10.93;6.07;;;14.80;99.90;;;;;;5103718;28;20063;-61
2023/05/04 07:48:59;;;;;;;18.08;5.68;;;15.20;99.90;;;;;;5106802;27;20070;-60
2023/05/04 07:51:24;;;;;;;7.68;4.78;;;15.20;99.90;;;;;;5108571;27;20039;-60
2023/05/04 07:53:50;;;;;;;8.80;4.70;;;15.30;99.90;;;;;;5105341;27;20024;-60
2023/05/04 07:56:15;;;;;;;12.48;5.13;;;15.30;99.90;;;;;;5111150;27;20069;-61
2023/05/04 07:58:41;;;;;;;12.05;5.57;;;14.30;99.90;;;;;;5104333;27;20028;-61
2023/05/04 08:01:07;;;;;;;10.07;4.70;;;15.60;99.90;;;;;;5101722;27;20039;-60
2023/05/04 08:03:32;;;;;;;13.77;5.50;;;15.60;99.90;;;;;;5102842;27;20070;-60
2023/05/04 08:05:58;;;;;;;10.07;5.40;;;15.70;99.90;;;;;;5102813;27;20051;-61
2023/05/04 08:08:24;;;;;;;10.40;5.53;;;15.70;99.90;;;;;;5099107;28;20032;-62
2023/05/04 08:10:50;;;;;;;11.35;5.63;;;15.70;99.90;;;;;;5108144;27;20317;-59
2023/05/04 08:13:15;;;;;;;10.10;5.60;;;15.90;99.90;;;;;;5107406;27;20046;-58
2023/05/04 08:15:41;;;;;;;12.73;5.65;;;16.00;99.90;;;;;;5098819;28;20401;-57
2023/05/04 08:18:07;;;;;;;8.98;5.28;;;15.90;99.90;;;;;;5109456;27;20081;-57
2023/05/04 08:20:32;;;;;;;12.05;5.47;;;15.90;99.90;;;;;;5108956;27;20194;-58
2023/05/04 08:22:58;;;;;;;9.18;5.53;;;16.00;99.90;;;;;;5110139;27;20100;-58
2023/05/04 08:25:24;;;;;;;12.02;5.88;;;16.20;99.90;;;;;;5099056;27;20096;-58
2023/05/04 08:27:49;;;;;;;9.60;5.97;;;16.10;99.90;;;;;;5104733;27;20070;-56
2023/05/04 08:30:15;;;;;;;9.90;5.65;;;15.90;99.90;;;;;;5104530;27;20467;-58
2023/05/04 08:32:41;;;;;;;11.77;5.97;;;16.00;99.90;;;;;;5101022;27;20040;-58
2023/05/04 08:35:07;;;;;;;10.60;5.90;;;16.30;99.90;;;;;;5098675;28;20092;-57
2023/05/04 08:37:33;;;;;;;9.90;5.30;;;16.40;99.90;;;;;;5096655;27;20108;-58
2023/05/04 08:39:58;;;;;;;17.17;6.30;;;16.30;99.90;;;;;;5094892;27;20404;-58
2023/05/04 08:42:31;;;;;;;13.95;5.15;;;16.40;99.90;;;;;;5093191;27;20035;-58
2023/05/04 08:44:58;;;;;;;8.93;5.25;;;16.50;99.90;;;;;;5097380;28;20576;-58
2023/05/04 08:47:25;;;;;;;10.45;4.82;;;16.70;99.90;;;;;;5100360;28;20903;-58
2023/05/04 08:49:55;;;;;;;13.20;5.05;;;16.90;99.90;;;;;;5092613;27;20027;-58
2023/05/04 08:52:25;;;;;;;8.63;4.70;;;16.80;99.90;;;;;;5098128;27;20118;-58
2023/05/04 08:54:56;;;;;;;8.82;4.55;;;17.00;99.90;;;;;;5090107;27;20397;-58
2023/05/04 08:57:23;;;;;;;9.02;4.72;;;17.00;99.90;;;;;;5093992;27;20046;-58
2023/05/04 08:59:53;;;;;;;9.20;4.45;;;17.00;99.90;;;;;;5089837;27;20070;-58
2023/05/04 09:02:20;;;;;;;10.55;4.28;;;17.20;99.90;;;;;;5099481;28;20506;-58
2023/05/04 09:04:46;;;;;;;8.70;4.35;;;17.20;99.90;;;;;;5091017;27;20320;-59
2023/05/04 09:07:11;;;;;;;11.27;4.57;;;17.40;99.90;;;;;;5108211;27;20435;-58
2023/05/04 09:09:37;;;;;;;8.57;4.25;;;17.50;99.90;;;;;;5113120;27;20387;-58
2023/05/04 09:12:03;;;;;;;10.30;4.03;;;17.30;99.90;;;;;;5108248;27;20464;-58
2023/05/04 09:14:33;;;;;;;7.85;4.22;;;17.50;99.90;;;;;;5111226;27;20036;-58
2023/05/04 09:17:11;;;;;;;8.70;4.30;;;17.50;99.90;;;;;;5085179;27;20031;-58
2023/05/04 09:19:37;;;;;;;8.55;4.30;;;17.80;99.90;;;;;;5101334;27;20054;-58
2023/05/04 09:22:13;;;;;;;7.55;3.60;;;18.00;99.90;;;;;;5108472;27;20110;-57
2023/05/04 09:24:39;;;;;;;7.55;3.97;;;18.10;99.90;;;;;;5113017;27;20483;-58
2023/05/04 09:27:16;;;;;;;6.85;3.58;;;18.20;99.90;;;;;;5116753;27;20032;-57
2023/05/04 09:29:42;;;;;;;7.97;4.40;;;18.40;99.90;;;;;;5109299;27;20039;-58
2023/05/04 09:32:13;;;;;;;6.90;3.92;;;18.60;99.90;;;;;;5112478;27;20036;-58
2023/05/04 09:35:06;;;;;;;7.15;4.60;;;18.60;99.90;;;;;;5109880;27;20031;-58
2023/05/04 09:37:45;;;;;;;8.63;4.35;;;18.60;99.90;;;;;;5099941;27;20316;-58
2023/05/04 09:40:12;;;;;;;7.03;4.60;;;18.60;99.90;;;;;;5104988;27;20035;-58
2023/05/04 09:42:38;;;;;;;10.02;5.35;;;18.70;99.90;;;;;;5107724;27;20403;-58
2023/05/04 09:45:08;;;;;;;7.05;4.60;;;18.70;99.90;;;;;;5106001;27;20047;-58
2023/05/04 09:47:38;;;;;;;11.73;5.43;;;18.80;99.90;;;;;;5109158;27;20047;-59
2023/05/04 09:50:15;;;;;;;5.63;4.45;;;18.90;99.90;;;;;;5108084;27;20036;-58
2023/05/04 09:52:42;;;;;;;5.53;4.45;;;18.90;99.90;;;;;;5102572;27;20101;-58
2023/05/04 09:55:11;;;;;;;5.95;4.07;;;18.90;99.90;;;;;;5094836;27;20032;-59
2023/05/04 09:57:37;;;;;;;7.53;4.60;;;19.00;99.90;;;;;;5100745;27;20045;-59
2023/05/04 10:00:03;;;;;;;6.25;4.05;;;19.10;99.90;;;;;;5096863;27;20047;-58
2023/05/04 10:02:31;;;;;;;9.23;4.90;;;19.10;99.90;;;;;;5107837;27;20096;-59
2023/05/04 10:04:57;;;;;;;8.45;4.70;;;19.30;99.90;;;;;;5090058;28;20039;-58
2023/05/04 10:07:23;;;;;;;8.75;4.18;;;19.20;99.90;;;;;;5103062;27;20339;-59
2023/05/04 10:09:50;;;;;;;6.30;4.07;;;19.40;99.90;;;;;;5110898;27;20031;-58
2023/05/04 10:12:16;;;;;;;8.40;4.55;;;19.50;99.90;;;;;;5103329;27;20485;-59
2023/05/04 10:14:45;;;;;;;9.52;4.10;;;19.50;99.90;;;;;;5087269;27;20035;-59
2023/05/04 10:17:17;;;;;;;6.50;4.10;;;19.50;99.90;;;;;;5111425;27;20031;-58
2023/05/04 10:20:06;;;;;;;6.53;3.95;;;19.50;99.90;;;;;;5100923;27;20114;-58
2023/05/04 10:22:56;;;;;;;8.00;3.92;;;19.60;99.90;;;;;;5101656;27;20039;-59
2023/05/04 10:25:33;;;;;;;6.22;4.15;;;19.50;99.90;;;;;;5104593;27;20089;-59
2023/05/04 10:28:21;;;;;;;7.97;4.20;;;19.50;99.90;;;;;;5102638;27;20110;-59
2023/05/04 10:30:46;;;;;;;9.00;4.15;;;19.60;99.90;;;;;;5103532;27;20035;-59
2023/05/04 10:33:12;;;;;;;10.05;4.05;;;19.60;99.90;;;;;;5110414;27;20058;-59
2023/05/04 10:35:52;;;;;;;7.57;3.88;;;19.70;99.90;;;;;;5105012;27;20047;-59
2023/05/04 10:38:18;;;;;;;8.07;3.83;;;19.90;99.90;;;;;;5104897;27;20182;-59
2023/05/04 10:40:47;;;;;;;5.55;3.92;;;19.80;99.90;;;;;;5109017;27;20467;-59
2023/05/04 10:43:22;;;;;;;7.10;3.97;;;19.90;99.90;;;;;;5103976;27;20569;-59
2023/05/04 10:45:48;;;;;;;7.00;4.32;;;19.70;99.90;;;;;;5107053;27;20499;-59
2023/05/04 10:48:14;;;;;;;5.80;3.70;;;19.90;99.90;;;;;;5096635;27;20154;-59
2023/05/04 10:50:48;;;;;;;5.63;3.70;;;20.00;99.90;;;;;;5103908;27;20435;-59
2023/05/04 10:53:15;;;;;;;4.55;3.53;;;19.90;99.90;;;;;;5096490;27;20058;-59
2023/05/04 10:55:42;;;;;;;7.72;3.58;;;20.00;99.90;;;;;;5107457;27;20147;-59
2023/05/04 10:58:10;;;;;;;5.65;3.50;;;19.90;99.90;;;;;;5112162;27;20027;-59
2023/05/04 11:00:37;;;;;;;15.30;10.45;;;20.10;99.90;;;;;;5105033;27;20032;-59
2023/05/04 11:03:04;;;;;;;12.65;7.25;;;20.20;99.90;;;;;;5103910;27;20248;-57
2023/05/04 11:05:40;;;;;;;7.25;4.22;;;20.10;99.90;;;;;;5095550;27;20051;-58
2023/05/04 11:08:25;;;;;;;8.48;3.90;;;20.10;99.90;;;;;;5108366;27;20036;-58
2023/05/04 11:11:01;;;;;;;7.43;4.15;;;20.10;99.90;;;;;;5106426;28;20043;-58
2023/05/04 11:13:48;;;;;;;10.50;4.75;;;20.20;99.90;;;;;;5111831;27;20737;-58
2023/05/04 11:16:22;;;;;;;6.35;3.92;;;20.30;99.90;;;;;;5108755;27;20043;-58
2023/05/04 11:18:47;;;;;;;6.97;3.60;;;20.30;99.90;;;;;;5108790;28;20546;-57
2023/05/04 11:21:25;;;;;;;7.85;4.05;;;20.20;99.90;;;;;;5110152;27;20118;-58
2023/05/04 11:23:58;;;;;;;5.78;3.45;;;20.20;99.90;;;;;;5100079;28;20048;-58
2023/05/04 11:26:25;;;;;;;5.03;3.60;;;20.20;99.90;;;;;;5101474;28;20044;-58
2023/05/04 11:28:51;;;;;;;6.43;3.38;;;20.20;99.90;;;;;;5097400;28;20057;-58
2023/05/04 11:31:17;;;;;;;6.22;2.80;;;20.30;99.90;;;;;;5106766;28;20035;-58
2023/05/04 11:33:51;;;;;;;6.82;3.72;;;20.30;99.90;;;;;;5115472;28;20047;-58
2023/05/04 11:36:16;;;;;;;;;;;20.30;99.90;;;;;;5098249;28;20491;-58
2023/05/04 11:38:42;;;;;;;4.82;3.30;;;20.30;99.90;;;;;;5101316;28;19919;-58
2023/05/04 11:41:08;;;;;;;4.80;2.90;;;20.20;99.90;;;;;;5100943;28;20040;-58
2023/05/04 11:43:35;;;;;;;8.13;2.70;;;20.20;99.90;;;;;;5102495;28;20363;-58
2023/05/04 11:46:01;;;;;;;5.43;3.13;;;20.30;99.90;;;;;;5103262;28;20039;-58
2023/05/04 11:48:28;;;;;;;6.75;2.92;;;20.30;99.90;;;;;;5112152;28;20032;-58
2023/05/04 11:50:54;;;;;;;3.33;2.40;;;20.30;99.90;;;;;;5107375;28;20038;-58
2023/05/04 11:53:22;;;;;;;6.50;3.28;;;20.30;99.90;;;;;;5096587;28;20036;-58
2023/05/04 11:55:48;;;;;;;8.10;3.10;;;20.30;99.90;;;;;;5094100;28;20112;-58
2023/05/04 11:58:14;;;;;;;6.97;3.03;;;20.20;99.90;;;;;;5103241;28;20043;-58
2023/05/04 12:00:44;;;;;;;4.43;2.70;;;20.30;99.90;;;;;;5106121;28;20040;-58
2023/05/04 12:03:12;;;;;;;5.07;2.67;;;20.40;99.90;;;;;;5110565;28;20035;-57
2023/05/04 12:05:38;;;;;;;5.78;2.70;;;20.40;99.90;;;;;;5102284;28;20035;-58
2023/05/04 12:08:06;;;;;;;4.50;2.35;;;20.30;99.90;;;;;;5112127;28;20027;-57
2023/05/04 12:10:33;;;;;;;7.78;3.25;;;20.40;99.90;;;;;;5099673;28;20042;-58
2023/05/04 12:13:00;;;;;;;4.03;2.65;;;20.40;99.70;;;;;;5105429;28;20468;-57
2023/05/04 12:15:33;;;;;;;4.78;2.53;;;20.40;99.90;;;;;;5107991;27;20032;-58
2023/05/04 12:17:58;;;;;;;4.25;2.60;;;20.40;99.90;;;;;;5110042;27;20168;-57
2023/05/04 12:20:27;;;;;;;6.03;2.50;;;20.50;99.90;;;;;;5113518;27;20032;-58
2023/05/04 12:22:54;;;;;;;6.63;2.85;;;20.60;99.90;;;;;;5119279;27;20031;-57
2023/05/04 12:25:20;;;;;;;7.10;2.60;;;20.70;99.90;;;;;;5105476;27;20066;-58
2023/05/04 12:27:45;;;;;;;4.32;2.78;;;20.80;99.90;;;;;;5113445;27;20035;-59
2023/05/04 12:30:12;;;;;;;4.50;2.55;;;20.70;99.90;;;;;;5115265;27;20104;-59
2023/05/04 12:32:37;;;;;;;5.00;2.47;;;20.80;98.90;;;;;;5108671;27;20035;-58
2023/05/04 12:35:03;;;;;;;3.83;2.40;;;20.80;99.30;;;;;;5107799;27;20329;-58
2023/05/04 12:37:29;;;;;;;5.78;2.38;;;20.80;98.20;;;;;;5114208;27;20042;-59
2023/05/04 12:39:55;;;;;;;5.03;2.47;;;20.70;98.40;;;;;;5115082;27;20159;-59
2023/05/04 12:42:21;;;;;;;4.30;2.30;;;20.80;98.60;;;;;;5102702;27;20135;-59